sensor_id;sensor_type;location;lat;lon;timestamp;pressure;altitude;pressure_sealevel;temperature;humidity
4398;BME280;2213;49.720;7.296;2024-02-23T00:01:55;95845.84;;;7.48;100.00
4398;BME280;2213;49.720;7.296;2024-02-23T00:04:24;95839.03;;;7.47;100.00
4398;BME280;2213;49.720;7.296;2024-02-23T00:06:54;95838.69;;;7.43;100.00
4398;BME280;2213;49.720;7.296;2024-02-23T00:09:22;95844.56;;;7.39;100.00
4398;BME280;2213;49.720;7.296;2024-02-23T00:11:51;95855.63;;;7.34;100.00
4398;BME280;2213;49.720;7.296;2024-02-23T00:14:20;95875.97;;;7.37;100.00
4398;BME280;2213;49.720;7.296;2024-02-23T00:16:49;95875.84;;;7.32;100.00
4398;BME280;2213;49.720;7.296;2024-02-23T00:19:17;95881.16;;;7.37;100.00
4398;BME280;2213;49.720;7.296;2024-02-23T00:21:46;95901.69;;;7.27;100.00
4398;BME280;2213;49.720;7.296;2024-02-23T00:24:18;95912.81;;;7.16;100.00
4398;BME280;2213;49.720;7.296;2024-02-23T00:26:48;95918.66;;;7.12;100.00
4398;BME280;2213;49.720;7.296;2024-02-23T00:29:18;95914.59;;;7.04;100.00
4398;BME280;2213;49.720;7.296;2024-02-23T00:31:49;95930.00;;;6.99;100.00
4398;BME280;2213;49.720;7.296;2024-02-23T00:34:17;95943.44;;;6.96;100.00
4398;BME280;2213;49.720;7.296;2024-02-23T00:36:46;95939.56;;;6.87;100.00
4398;BME280;2213;49.720;7.296;2024-02-23T00:39:15;95948.63;;;6.78;100.00
4398;BME280;2213;49.720;7.296;2024-02-23T00:41:45;95958.44;;;6.76;100.00
4398;BME280;2213;49.720;7.296;2024-02-23T00:44:13;95962.41;;;6.78;100.00
4398;BME280;2213;49.720;7.296;2024-02-23T00:46:42;95965.25;;;6.70;100.00
4398;BME280;2213;49.720;7.296;2024-02-23T00:49:10;95966.22;;;6.76;100.00
4398;BME280;2213;49.720;7.296;2024-02-23T00:51:39;95972.28;;;6.70;100.00
4398;BME280;2213;49.720;7.296;2024-02-23T00:54:07;95973.13;;;6.64;100.00
4398;BME280;2213;49.720;7.296;2024-02-23T00:56:36;95964.25;;;6.71;100.00
4398;BME280;2213;49.720;7.296;2024-02-23T00:59:18;95980.22;;;6.75;100.00
4398;BME280;2213;49.720;7.296;2024-02-23T01:01:48;95984.59;;;6.74;100.00
4398;BME280;2213;49.720;7.296;2024-02-23T01:04:16;95984.66;;;6.68;100.00
4398;BME280;2213;49.720;7.296;2024-02-23T01:06:45;95992.47;;;6.68;100.00
4398;BME280;2213;49.720;7.296;2024-02-23T01:09:14;95993.56;;;6.53;100.00
4398;BME280;2213;49.720;7.296;2024-02-23T01:11:44;95995.59;;;6.51;100.00
4398;BME280;2213;49.720;7.296;2024-02-23T01:14:12;95994.19;;;6.55;100.00
4398;BME280;2213;49.720;7.296;2024-02-23T01:16:42;95997.41;;;6.51;100.00
4398;BME280;2213;49.720;7.296;2024-02-23T01:19:11;96004.03;;;6.47;100.00
4398;BME280;2213;49.720;7.296;2024-02-23T01:21:39;96004.13;;;6.34;100.00
4398;BME280;2213;49.720;7.296;2024-02-23T01:24:08;96010.84;;;6.41;100.00
4398;BME280;2213;49.720;7.296;2024-02-23T01:26:36;96015.78;;;6.49;100.00
4398;BME280;2213;49.720;7.296;2024-02-23T01:29:09;96016.63;;;6.43;100.00
4398;BME280;2213;49.720;7.296;2024-02-23T01:31:37;96026.81;;;6.45;100.00
4398;BME280;2213;49.720;7.296;2024-02-23T01:34:07;96022.88;;;6.36;100.00
4398;BME280;2213;49.720;7.296;2024-02-23T01:36:36;96018.66;;;6.41;100.00
4398;BME280;2213;49.720;7.296;2024-02-23T01:39:06;96016.19;;;6.46;100.00
4398;BME280;2213;49.720;7.296;2024-02-23T01:41:34;96029.19;;;6.46;100.00
4398;BME280;2213;49.720;7.296;2024-02-23T01:44:03;96030.34;;;6.50;100.00
4398;BME280;2213;49.720;7.296;2024-02-23T01:46:32;96030.34;;;6.50;100.00
4398;BME280;2213;49.720;7.296;2024-02-23T01:49:01;96021.72;;;6.56;100.00
4398;BME280;2213;49.720;7.296;2024-02-23T01:51:31;96031.94;;;6.51;100.00
4398;BME280;2213;49.720;7.296;2024-02-23T01:54:00;96039.25;;;6.61;100.00
4398;BME280;2213;49.720;7.296;2024-02-23T01:56:29;96039.06;;;6.63;100.00
4398;BME280;2213;49.720;7.296;2024-02-23T01:58:59;96053.63;;;6.64;100.00
4398;BME280;2213;49.720;7.296;2024-02-23T02:01:30;96054.09;;;6.54;100.00
4398;BME280;2213;49.720;7.296;2024-02-23T02:03:59;96051.41;;;6.36;100.00
4398;BME280;2213;49.720;7.296;2024-02-23T02:06:27;96052.25;;;6.30;100.00
4398;BME280;2213;49.720;7.296;2024-02-23T02:08:57;96047.56;;;6.14;100.00
4398;BME280;2213;49.720;7.296;2024-02-23T02:11:26;96044.97;;;6.14;100.00
4398;BME280;2213;49.720;7.296;2024-02-23T02:13:54;96039.41;;;6.10;100.00
4398;BME280;2213;49.720;7.296;2024-02-23T02:16:23;96040.59;;;6.14;100.00
4398;BME280;2213;49.720;7.296;2024-02-23T02:18:51;96029.97;;;6.16;100.00
4398;BME280;2213;49.720;7.296;2024-02-23T02:21:19;96032.81;;;6.14;100.00
4398;BME280;2213;49.720;7.296;2024-02-23T02:23:50;96033.38;;;6.16;100.00
4398;BME280;2213;49.720;7.296;2024-02-23T02:26:20;96043.19;;;6.07;100.00
4398;BME280;2213;49.720;7.296;2024-02-23T02:28:49;96050.16;;;6.14;100.00
4398;BME280;2213;49.720;7.296;2024-02-23T02:31:17;96041.81;;;6.05;100.00
4398;BME280;2213;49.720;7.296;2024-02-23T02:33:46;96039.50;;;5.97;100.00
4398;BME280;2213;49.720;7.296;2024-02-23T02:36:14;96051.78;;;6.08;100.00
4398;BME280;2213;49.720;7.296;2024-02-23T02:38:43;96043.47;;;5.99;100.00
4398;BME280;2213;49.720;7.296;2024-02-23T02:41:11;96038.31;;;5.93;100.00
4398;BME280;2213;49.720;7.296;2024-02-23T02:43:41;96033.91;;;5.93;100.00
4398;BME280;2213;49.720;7.296;2024-02-23T02:46:10;96040.28;;;5.91;100.00
4398;BME280;2213;49.720;7.296;2024-02-23T02:48:38;96035.28;;;5.96;100.00
4398;BME280;2213;49.720;7.296;2024-02-23T02:51:06;96042.03;;;6.03;100.00
4398;BME280;2213;49.720;7.296;2024-02-23T02:53:35;96044.63;;;6.03;100.00
4398;BME280;2213;49.720;7.296;2024-02-23T02:56:06;96047.88;;;5.92;100.00
4398;BME280;2213;49.720;7.296;2024-02-23T02:58:34;96054.06;;;5.91;100.00
4398;BME280;2213;49.720;7.296;2024-02-23T03:01:04;96045.06;;;5.94;100.00
4398;BME280;2213;49.720;7.296;2024-02-23T03:03:33;96048.69;;;5.93;100.00
4398;BME280;2213;49.720;7.296;2024-02-23T03:06:02;96038.13;;;5.88;100.00
4398;BME280;2213;49.720;7.296;2024-02-23T03:08:30;96053.44;;;5.96;100.00
4398;BME280;2213;49.720;7.296;2024-02-23T03:10:58;96046.66;;;5.95;100.00
4398;BME280;2213;49.720;7.296;2024-02-23T03:13:27;96043.50;;;5.93;100.00
4398;BME280;2213;49.720;7.296;2024-02-23T03:15:56;96048.66;;;5.99;100.00
4398;BME280;2213;49.720;7.296;2024-02-23T03:18:25;96058.63;;;5.96;100.00
4398;BME280;2213;49.720;7.296;2024-02-23T03:20:55;96056.19;;;6.01;100.00
4398;BME280;2213;49.720;7.296;2024-02-23T03:23:23;96058.44;;;5.91;100.00
4398;BME280;2213;49.720;7.296;2024-02-23T03:25:52;96053.88;;;5.80;100.00
4398;BME280;2213;49.720;7.296;2024-02-23T03:28:21;96059.84;;;5.87;100.00
4398;BME280;2213;49.720;7.296;2024-02-23T03:30:49;96058.69;;;5.89;100.00
4398;BME280;2213;49.720;7.296;2024-02-23T03:33:17;96062.66;;;5.92;100.00
4398;BME280;2213;49.720;7.296;2024-02-23T03:35:47;96058.06;;;5.87;100.00
4398;BME280;2213;49.720;7.296;2024-02-23T03:38:16;96073.22;;;5.84;100.00
4398;BME280;2213;49.720;7.296;2024-02-23T03:40:44;96071.63;;;5.89;100.00
4398;BME280;2213;49.720;7.296;2024-02-23T03:43:13;96071.84;;;5.81;100.00
4398;BME280;2213;49.720;7.296;2024-02-23T03:45:41;96074.63;;;5.80;100.00
4398;BME280;2213;49.720;7.296;2024-02-23T03:48:10;96075.03;;;5.77;100.00
4398;BME280;2213;49.720;7.296;2024-02-23T03:50:38;96073.47;;;5.76;100.00
4398;BME280;2213;49.720;7.296;2024-02-23T03:53:08;96085.88;;;5.61;100.00
4398;BME280;2213;49.720;7.296;2024-02-23T03:55:37;96087.63;;;5.67;100.00
4398;BME280;2213;49.720;7.296;2024-02-23T03:58:05;96091.66;;;5.56;100.00
4398;BME280;2213;49.720;7.296;2024-02-23T04:00:33;96086.28;;;5.57;100.00
4398;BME280;2213;49.720;7.296;2024-02-23T04:03:02;96086.09;;;5.52;100.00
4398;BME280;2213;49.720;7.296;2024-02-23T04:05:31;96083.91;;;5.49;100.00
4398;BME280;2213;49.720;7.296;2024-02-23T04:07:59;96081.91;;;5.58;100.00
4398;BME280;2213;49.720;7.296;2024-02-23T04:10:29;96078.72;;;5.49;100.00
4398;BME280;2213;49.720;7.296;2024-02-23T04:12:58;96083.72;;;5.51;100.00
4398;BME280;2213;49.720;7.296;2024-02-23T04:15:26;96094.69;;;5.46;100.00
4398;BME280;2213;49.720;7.296;2024-02-23T04:17:55;96088.91;;;5.44;100.00
4398;BME280;2213;49.720;7.296;2024-02-23T04:20:23;96091.09;;;5.47;100.00
4398;BME280;2213;49.720;7.296;2024-02-23T04:22:52;96087.09;;;5.45;100.00
4398;BME280;2213;49.720;7.296;2024-02-23T04:25:20;96080.31;;;5.50;100.00
4398;BME280;2213;49.720;7.296;2024-02-23T04:27:50;96078.72;;;5.49;100.00
4398;BME280;2213;49.720;7.296;2024-02-23T04:30:19;96074.53;;;5.48;100.00
4398;BME280;2213;49.720;7.296;2024-02-23T04:32:47;96088.09;;;5.50;100.00
4398;BME280;2213;49.720;7.296;2024-02-23T04:35:16;96077.91;;;5.55;100.00
4398;BME280;2213;49.720;7.296;2024-02-23T04:37:44;96066.38;;;5.51;100.00
4398;BME280;2213;49.720;7.296;2024-02-23T04:40:13;96068.97;;;5.51;100.00
4398;BME280;2213;49.720;7.296;2024-02-23T04:42:43;96077.13;;;5.55;100.00
4398;BME280;2213;49.720;7.296;2024-02-23T04:45:14;96062.34;;;5.55;100.00
4398;BME280;2213;49.720;7.296;2024-02-23T04:47:42;96071.53;;;5.45;100.00
4398;BME280;2213;49.720;7.296;2024-02-23T04:50:14;96071.16;;;5.48;100.00
4398;BME280;2213;49.720;7.296;2024-02-23T04:52:43;96067.97;;;5.46;100.00
4398;BME280;2213;49.720;7.296;2024-02-23T04:55:11;96059.19;;;5.53;100.00
4398;BME280;2213;49.720;7.296;2024-02-23T04:57:40;96047.81;;;5.54;100.00
4398;BME280;2213;49.720;7.296;2024-02-23T05:00:10;96054.75;;;5.61;100.00
4398;BME280;2213;49.720;7.296;2024-02-23T05:02:40;96054.75;;;5.61;100.00
4398;BME280;2213;49.720;7.296;2024-02-23T05:05:08;96047.78;;;5.61;100.00
4398;BME280;2213;49.720;7.296;2024-02-23T05:07:37;96047.97;;;5.59;100.00
4398;BME280;2213;49.720;7.296;2024-02-23T05:10:06;96047.56;;;5.63;100.00
4398;BME280;2213;49.720;7.296;2024-02-23T05:12:35;96052.38;;;5.66;100.00
4398;BME280;2213;49.720;7.296;2024-02-23T05:15:04;96040.81;;;5.62;100.00
4398;BME280;2213;49.720;7.296;2024-02-23T05:17:33;96039.63;;;5.57;100.00
4398;BME280;2213;49.720;7.296;2024-02-23T05:20:04;96038.06;;;5.50;100.00
4398;BME280;2213;49.720;7.296;2024-02-23T05:22:38;96039.25;;;5.54;100.00
4398;BME280;2213;49.720;7.296;2024-02-23T05:25:07;96028.91;;;5.47;100.00
4398;BME280;2213;49.720;7.296;2024-02-23T05:27:36;96026.09;;;5.42;100.00
4398;BME280;2213;49.720;7.296;2024-02-23T05:30:06;96018.16;;;5.37;100.00
4398;BME280;2213;49.720;7.296;2024-02-23T05:32:35;96012.16;;;5.43;100.00
4398;BME280;2213;49.720;7.296;2024-02-23T05:35:06;96010.56;;;5.42;100.00
4398;BME280;2213;49.720;7.296;2024-02-23T05:37:35;96010.41;;;5.37;100.00
4398;BME280;2213;49.720;7.296;2024-02-23T05:40:05;96007.38;;;5.40;100.00
4398;BME280;2213;49.720;7.296;2024-02-23T05:42:38;96003.63;;;5.36;100.00
4398;BME280;2213;49.720;7.296;2024-02-23T05:45:08;96001.81;;;5.37;100.00
4398;BME280;2213;49.720;7.296;2024-02-23T05:47:38;95989.06;;;5.35;100.00
4398;BME280;2213;49.720;7.296;2024-02-23T05:50:12;95974.53;;;5.34;100.00
4398;BME280;2213;49.720;7.296;2024-02-23T05:52:40;95976.50;;;5.32;100.00
4398;BME280;2213;49.720;7.296;2024-02-23T05:55:09;95970.75;;;5.30;100.00
4398;BME280;2213;49.720;7.296;2024-02-23T05:57:37;95970.34;;;5.33;100.00
4398;BME280;2213;49.720;7.296;2024-02-23T06:00:07;95967.56;;;5.28;100.00
4398;BME280;2213;49.720;7.296;2024-02-23T06:02:36;95970.34;;;5.33;100.00
4398;BME280;2213;49.720;7.296;2024-02-23T06:05:05;95978.31;;;5.32;100.00
4398;BME280;2213;49.720;7.296;2024-02-23T06:07:36;95972.53;;;5.30;100.00
4398;BME280;2213;49.720;7.296;2024-02-23T06:10:06;95974.53;;;5.34;100.00
4398;BME280;2213;49.720;7.296;2024-02-23T06:12:35;95963.56;;;5.32;100.00
4398;BME280;2213;49.720;7.296;2024-02-23T06:15:04;95966.75;;;5.34;100.00
4398;BME280;2213;49.720;7.296;2024-02-23T06:17:33;95968.16;;;5.30;100.00
4398;BME280;2213;49.720;7.296;2024-02-23T06:20:02;95971.56;;;5.31;100.00
4398;BME280;2213;49.720;7.296;2024-02-23T06:22:33;95976.72;;;5.24;100.00
4398;BME280;2213;49.720;7.296;2024-02-23T06:25:04;95966.38;;;5.24;100.00
4398;BME280;2213;49.720;7.296;2024-02-23T06:27:33;95974.75;;;5.26;100.00
4398;BME280;2213;49.720;7.296;2024-02-23T06:30:02;95974.94;;;5.25;100.00
4398;BME280;2213;49.720;7.296;2024-02-23T06:32:30;95980.94;;;5.25;100.00
4398;BME280;2213;49.720;7.296;2024-02-23T06:34:59;95975.31;;;5.28;100.00
4398;BME280;2213;49.720;7.296;2024-02-23T06:37:28;95977.94;;;5.22;100.00
4398;BME280;2213;49.720;7.296;2024-02-23T06:39:56;95990.72;;;5.23;100.00
4398;BME280;2213;49.720;7.296;2024-02-23T06:42:26;95990.28;;;5.26;100.00
4398;BME280;2213;49.720;7.296;2024-02-23T06:44:54;95991.91;;;5.27;100.00
4398;BME280;2213;49.720;7.296;2024-02-23T06:47:22;95993.25;;;5.36;100.00
4398;BME280;2213;49.720;7.296;2024-02-23T06:49:51;95999.41;;;5.42;100.00
4398;BME280;2213;49.720;7.296;2024-02-23T06:52:20;96002.78;;;5.42;100.00
4398;BME280;2213;49.720;7.296;2024-02-23T06:54:50;96016.75;;;5.41;100.00
4398;BME280;2213;49.720;7.296;2024-02-23T06:57:18;96009.97;;;5.40;100.00
4398;BME280;2213;49.720;7.296;2024-02-23T06:59:48;96015.16;;;5.40;100.00
4398;BME280;2213;49.720;7.296;2024-02-23T07:02:17;96019.34;;;5.41;100.00
4398;BME280;2213;49.720;7.296;2024-02-23T07:04:45;96023.09;;;5.45;100.00
4398;BME280;2213;49.720;7.296;2024-02-23T07:07:13;96035.06;;;5.46;100.00
4398;BME280;2213;49.720;7.296;2024-02-23T07:09:42;96023.34;;;5.37;100.00
4398;BME280;2213;49.720;7.296;2024-02-23T07:12:10;96035.69;;;5.35;100.00
4398;BME280;2213;49.720;7.296;2024-02-23T07:14:40;96042.47;;;5.43;100.00
4398;BME280;2213;49.720;7.296;2024-02-23T07:17:10;96045.84;;;5.43;100.00
4398;BME280;2213;49.720;7.296;2024-02-23T07:19:39;96049.63;;;5.47;100.00
4398;BME280;2213;49.720;7.296;2024-02-23T07:22:07;96052.22;;;5.47;100.00
4398;BME280;2213;49.720;7.296;2024-02-23T07:24:40;96059.78;;;5.49;100.00
4398;BME280;2213;49.720;7.296;2024-02-23T07:27:08;96053.22;;;5.46;100.00
4398;BME280;2213;49.720;7.296;2024-02-23T07:29:37;96060.00;;;5.47;100.00
4398;BME280;2213;49.720;7.296;2024-02-23T07:32:06;96045.81;;;5.50;100.00
4398;BME280;2213;49.720;7.296;2024-02-23T07:34:36;96053.22;;;5.46;100.00
4398;BME280;2213;49.720;7.296;2024-02-23T07:37:05;96054.00;;;5.47;100.00
4398;BME280;2213;49.720;7.296;2024-02-23T07:39:33;96042.25;;;5.51;100.00
4398;BME280;2213;49.720;7.296;2024-02-23T07:42:02;96061.19;;;5.45;100.00
4398;BME280;2213;49.720;7.296;2024-02-23T07:44:32;96058.41;;;5.46;100.00
4398;BME280;2213;49.720;7.296;2024-02-23T07:47:01;96061.38;;;5.50;100.00
4398;BME280;2213;49.720;7.296;2024-02-23T07:49:30;96067.53;;;5.55;100.00
4398;BME280;2213;49.720;7.296;2024-02-23T07:51:59;96065.34;;;5.52;100.00
4398;BME280;2213;49.720;7.296;2024-02-23T07:54:29;96067.53;;;5.55;100.00
4398;BME280;2213;49.720;7.296;2024-02-23T07:56:58;96068.72;;;5.59;100.00
4398;BME280;2213;49.720;7.296;2024-02-23T07:59:26;96074.28;;;5.63;100.00
4398;BME280;2213;49.720;7.296;2024-02-23T08:01:55;96073.88;;;5.66;100.00
4398;BME280;2213;49.720;7.296;2024-02-23T08:04:24;96082.28;;;5.62;100.00
4398;BME280;2213;49.720;7.296;2024-02-23T08:06:52;96072.72;;;5.62;100.00
4398;BME280;2213;49.720;7.296;2024-02-23T08:09:22;96088.25;;;5.69;100.00
4398;BME280;2213;49.720;7.296;2024-02-23T08:11:51;96077.84;;;5.75;100.00
4398;BME280;2213;49.720;7.296;2024-02-23T08:14:19;96089.41;;;5.73;100.00
4398;BME280;2213;49.720;7.296;2024-02-23T08:16:48;96096.19;;;5.74;100.00
4398;BME280;2213;49.720;7.296;2024-02-23T08:19:17;96094.41;;;5.74;100.00
4398;BME280;2213;49.720;7.296;2024-02-23T08:21:45;96101.75;;;5.77;100.00
4398;BME280;2213;49.720;7.296;2024-02-23T08:24:14;96103.78;;;5.75;100.00
4398;BME280;2213;49.720;7.296;2024-02-23T08:26:43;96113.34;;;5.75;100.00
4398;BME280;2213;49.720;7.296;2024-02-23T08:29:12;96123.91;;;5.73;100.00
4398;BME280;2213;49.720;7.296;2024-02-23T08:31:40;96119.13;;;5.77;100.00
4398;BME280;2213;49.720;7.296;2024-02-23T08:34:09;96123.50;;;5.83;100.00
4398;BME280;2213;49.720;7.296;2024-02-23T08:36:37;96118.91;;;5.85;100.00
4398;BME280;2213;49.720;7.296;2024-02-23T08:39:06;96120.91;;;5.83;100.00
4398;BME280;2213;49.720;7.296;2024-02-23T08:41:35;96115.72;;;5.83;100.00
4398;BME280;2213;49.720;7.296;2024-02-23T08:44:05;96108.56;;;5.78;100.00
4398;BME280;2213;49.720;7.296;2024-02-23T08:46:34;96112.91;;;5.84;100.00
4398;BME280;2213;49.720;7.296;2024-02-23T08:49:02;96112.91;;;5.84;100.00
4398;BME280;2213;49.720;7.296;2024-02-23T08:51:30;96108.75;;;5.77;100.00
4398;BME280;2213;49.720;7.296;2024-02-23T08:53:59;96109.94;;;5.81;100.00
4398;BME280;2213;49.720;7.296;2024-02-23T08:56:31;96118.09;;;5.84;100.00
4398;BME280;2213;49.720;7.296;2024-02-23T08:59:00;96109.75;;;5.89;100.00
4398;BME280;2213;49.720;7.296;2024-02-23T09:01:30;96115.94;;;5.88;100.00
4398;BME280;2213;49.720;7.296;2024-02-23T09:03:59;96112.91;;;5.84;100.00
4398;BME280;2213;49.720;7.296;2024-02-23T09:06:27;96101.34;;;5.93;100.00
4398;BME280;2213;49.720;7.296;2024-02-23T09:08:56;96097.72;;;6.01;100.00
4398;BME280;2213;49.720;7.296;2024-02-23T09:11:25;96099.28;;;6.08;100.00
4398;BME280;2213;49.720;7.296;2024-02-23T09:13:53;96098.25;;;6.16;100.00
4398;BME280;2213;49.720;7.296;2024-02-23T09:16:22;96099.44;;;6.20;100.00
4398;BME280;2213;49.720;7.296;2024-02-23T09:18:53;96101.75;;;6.28;100.00
4398;BME280;2213;49.720;7.296;2024-02-23T09:21:21;96104.13;;;6.36;100.00
4398;BME280;2213;49.720;7.296;2024-02-23T09:23:50;96104.13;;;6.36;100.00
4398;BME280;2213;49.720;7.296;2024-02-23T09:26:18;96114.31;;;6.38;100.00
4398;BME280;2213;49.720;7.296;2024-02-23T09:28:47;96119.13;;;6.34;100.00
4398;BME280;2213;49.720;7.296;2024-02-23T09:31:15;96127.13;;;6.26;100.00
4398;BME280;2213;49.720;7.296;2024-02-23T09:33:44;96126.16;;;6.27;100.00
4398;BME280;2213;49.720;7.296;2024-02-23T09:36:14;96132.91;;;6.28;100.00
4398;BME280;2213;49.720;7.296;2024-02-23T09:38:43;96128.53;;;6.22;100.00
4398;BME280;2213;49.720;7.296;2024-02-23T09:41:20;96131.16;;;6.22;100.00
4398;BME280;2213;49.720;7.296;2024-02-23T09:43:50;96129.97;;;6.25;100.00
4398;BME280;2213;49.720;7.296;2024-02-23T09:46:22;96113.59;;;6.24;100.00
4398;BME280;2213;49.720;7.296;2024-02-23T09:48:51;96126.97;;;6.21;100.00
4398;BME280;2213;49.720;7.296;2024-02-23T09:51:23;96116.34;;;6.29;100.00
4398;BME280;2213;49.720;7.296;2024-02-23T09:53:52;96119.53;;;6.31;100.00
4398;BME280;2213;49.720;7.296;2024-02-23T09:56:26;96125.13;;;6.35;100.00
4398;BME280;2213;49.720;7.296;2024-02-23T09:58:58;96117.09;;;6.36;100.00
4398;BME280;2213;49.720;7.296;2024-02-23T10:01:29;96123.13;;;6.30;100.00
4398;BME280;2213;49.720;7.296;2024-02-23T10:04:01;96113.28;;;6.39;100.00
4398;BME280;2213;49.720;7.296;2024-02-23T10:06:33;96111.44;;;6.46;100.00
4398;BME280;2213;49.720;7.296;2024-02-23T10:09:02;96124.03;;;6.49;100.00
4398;BME280;2213;49.720;7.296;2024-02-23T10:11:32;96129.59;;;6.52;100.00
4398;BME280;2213;49.720;7.296;2024-02-23T10:14:01;96121.16;;;6.57;100.00
4398;BME280;2213;49.720;7.296;2024-02-23T10:16:29;96119.78;;;6.54;100.00
4398;BME280;2213;49.720;7.296;2024-02-23T10:18:58;96126.53;;;6.62;100.00
4398;BME280;2213;49.720;7.296;2024-02-23T10:21:27;96123.09;;;6.68;100.00
4398;BME280;2213;49.720;7.296;2024-02-23T10:23:56;96117.88;;;6.75;100.00
4398;BME280;2213;49.720;7.296;2024-02-23T10:26:26;96112.03;;;6.79;100.00
4398;BME280;2213;49.720;7.296;2024-02-23T10:28:55;96114.84;;;6.78;100.00
4398;BME280;2213;49.720;7.296;2024-02-23T10:31:26;96113.66;;;6.80;100.00
4398;BME280;2213;49.720;7.296;2024-02-23T10:33:58;96109.22;;;6.81;100.00
4398;BME280;2213;49.720;7.296;2024-02-23T10:36:29;96108.41;;;6.87;100.00
4398;BME280;2213;49.720;7.296;2024-02-23T10:39:03;96118.31;;;6.96;100.00
4398;BME280;2213;49.720;7.296;2024-02-23T10:41:35;96121.09;;;6.95;100.00
4398;BME280;2213;49.720;7.296;2024-02-23T10:44:06;96129.31;;;6.92;100.00
4398;BME280;2213;49.720;7.296;2024-02-23T10:46:36;96120.72;;;6.91;100.00
4398;BME280;2213;49.720;7.296;2024-02-23T10:49:08;96119.91;;;6.97;100.00
4398;BME280;2213;49.720;7.296;2024-02-23T10:51:39;96130.25;;;7.04;100.00
4398;BME280;2213;49.720;7.296;2024-02-23T10:54:11;96129.31;;;6.92;100.00
4398;BME280;2213;49.720;7.296;2024-02-23T10:56:41;96124.13;;;6.92;100.00
4398;BME280;2213;49.720;7.296;2024-02-23T10:59:09;96112.31;;;6.96;100.00
4398;BME280;2213;49.720;7.296;2024-02-23T11:01:40;96111.88;;;6.99;100.00
4398;BME280;2213;49.720;7.296;2024-02-23T11:04:08;96119.25;;;7.02;100.00
4398;BME280;2213;49.720;7.296;2024-02-23T11:06:37;96106.63;;;7.05;100.00
4398;BME280;2213;49.720;7.296;2024-02-23T11:09:07;96103.41;;;7.10;100.00
4398;BME280;2213;49.720;7.296;2024-02-23T11:11:38;96103.97;;;7.12;100.00
4398;BME280;2213;49.720;7.296;2024-02-23T11:14:10;96099.31;;;7.21;100.00
4398;BME280;2213;49.720;7.296;2024-02-23T11:16:40;96100.13;;;7.21;100.00
4398;BME280;2213;49.720;7.296;2024-02-23T11:19:09;96102.91;;;7.20;100.00
4398;BME280;2213;49.720;7.296;2024-02-23T11:21:39;96092.09;;;7.23;100.00
4398;BME280;2213;49.720;7.296;2024-02-23T11:24:07;96100.84;;;7.28;100.00
4398;BME280;2213;49.720;7.296;2024-02-23T11:26:38;96105.25;;;7.28;100.00
4398;BME280;2213;49.720;7.296;2024-02-23T11:29:11;96109.66;;;7.27;100.00
4398;BME280;2213;49.720;7.296;2024-02-23T11:31:46;96107.63;;;7.29;100.00
4398;BME280;2213;49.720;7.296;2024-02-23T11:34:22;96103.44;;;7.28;100.00
4398;BME280;2213;49.720;7.296;2024-02-23T11:36:54;96104.03;;;7.30;100.00
4398;BME280;2213;49.720;7.296;2024-02-23T11:39:23;96098.19;;;7.35;100.00
4398;BME280;2213;49.720;7.296;2024-02-23T11:41:53;96094.91;;;7.39;100.00
4398;BME280;2213;49.720;7.296;2024-02-23T11:44:22;96088.88;;;7.45;100.00
4398;BME280;2213;49.720;7.296;2024-02-23T11:46:50;96090.63;;;7.51;100.00
4398;BME280;2213;49.720;7.296;2024-02-23T11:49:19;96082.97;;;7.56;100.00
4398;BME280;2213;49.720;7.296;2024-02-23T11:51:48;96068.06;;;7.64;100.00
4398;BME280;2213;49.720;7.296;2024-02-23T11:54:17;96072.41;;;7.70;100.00
4398;BME280;2213;49.720;7.296;2024-02-23T11:56:45;96071.97;;;7.73;100.00
4398;BME280;2213;49.720;7.296;2024-02-23T11:59:17;96067.56;;;7.73;100.00
4398;BME280;2213;49.720;7.296;2024-02-23T12:01:46;96069.75;;;7.76;100.00
4398;BME280;2213;49.720;7.296;2024-02-23T12:04:15;96078.78;;;7.74;100.00
4398;BME280;2213;49.720;7.296;2024-02-23T12:06:44;96080.72;;;7.78;100.00
4398;BME280;2213;49.720;7.296;2024-02-23T12:09:14;96068.28;;;7.80;100.00
4398;BME280;2213;49.720;7.296;2024-02-23T12:11:43;96058.75;;;7.74;100.00
4398;BME280;2213;49.720;7.296;2024-02-23T12:14:11;96068.78;;;7.71;100.00
4398;BME280;2213;49.720;7.296;2024-02-23T12:16:41;96064.19;;;7.73;100.00
4398;BME280;2213;49.720;7.296;2024-02-23T12:19:10;96070.91;;;7.80;100.00
4398;BME280;2213;49.720;7.296;2024-02-23T12:21:38;96069.75;;;7.76;100.00
4398;BME280;2213;49.720;7.296;2024-02-23T12:24:07;96067.69;;;7.78;100.00
4398;BME280;2213;49.720;7.296;2024-02-23T12:26:36;96076.91;;;7.81;100.00
4398;BME280;2213;49.720;7.296;2024-02-23T12:29:05;96077.47;;;7.83;100.00
4398;BME280;2213;49.720;7.296;2024-02-23T12:31:34;96079.06;;;7.84;100.00
4398;BME280;2213;49.720;7.296;2024-02-23T12:34:04;96082.16;;;7.92;100.00
4398;BME280;2213;49.720;7.296;2024-02-23T12:36:36;96077.09;;;7.97;100.00
4398;BME280;2213;49.720;7.296;2024-02-23T12:39:05;96077.44;;;8.01;100.00
4398;BME280;2213;49.720;7.296;2024-02-23T12:41:33;96080.06;;;8.01;100.00
4398;BME280;2213;49.720;7.296;2024-02-23T12:44:02;96078.00;;;8.03;100.00
4398;BME280;2213;49.720;7.296;2024-02-23T12:46:30;96075.56;;;8.08;100.00
4398;BME280;2213;49.720;7.296;2024-02-23T12:48:59;96078.72;;;8.10;100.00
4398;BME280;2213;49.720;7.296;2024-02-23T12:51:31;96075.91;;;8.12;100.00
4398;BME280;2213;49.720;7.296;2024-02-23T12:54:00;96084.28;;;8.14;100.00
4398;BME280;2213;49.720;7.296;2024-02-23T12:56:29;96065.84;;;8.15;100.00
4398;BME280;2213;49.720;7.296;2024-02-23T12:58:58;96077.28;;;8.14;100.00
4398;BME280;2213;49.720;7.296;2024-02-23T13:01:27;96073.66;;;8.15;100.00
4398;BME280;2213;49.720;7.296;2024-02-23T13:03:55;96077.34;;;8.26;100.00
4398;BME280;2213;49.720;7.296;2024-02-23T13:06:23;96066.06;;;8.32;100.00
4398;BME280;2213;49.720;7.296;2024-02-23T13:08:54;96060.53;;;8.40;100.00
4398;BME280;2213;49.720;7.296;2024-02-23T13:11:22;96066.66;;;8.45;100.00
4398;BME280;2213;49.720;7.296;2024-02-23T13:13:51;96058.53;;;8.53;100.00
4398;BME280;2213;49.720;7.296;2024-02-23T13:16:19;96059.25;;;8.61;100.00
4398;BME280;2213;49.720;7.296;2024-02-23T13:18:47;96065.56;;;8.65;100.00
4398;BME280;2213;49.720;7.296;2024-02-23T13:21:16;96070.56;;;8.66;100.00
4398;BME280;2213;49.720;7.296;2024-02-23T13:23:44;96074.22;;;8.77;100.00
4398;BME280;2213;49.720;7.296;2024-02-23T13:26:14;96066.94;;;8.79;100.00
4398;BME280;2213;49.720;7.296;2024-02-23T13:28:43;96066.06;;;8.85;100.00
4398;BME280;2213;49.720;7.296;2024-02-23T13:31:12;96058.50;;;8.95;100.00
4398;BME280;2213;49.720;7.296;2024-02-23T13:33:42;96059.94;;;9.02;100.00